This is the latest recevied weather packets stored in our database for station/object N4AR. If no packets are shown the sender has not sent any weather packets the latest 10 day(s).
| Time | Temp. | Humidity | Pressure | Rain* | Wind** | Luminosity | Snow |
|---|---|---|---|---|---|---|---|
| 1778011242 | 31.11° C | 28% | 1013.4 hPa | 0 mm | - | 701 W/m² | - |
| 1778010938 | 31.11° C | 29% | 1013.3 hPa | 0 mm | - | 721 W/m² | - |
| 1778010636 | 31.11° C | 28% | 1013.6 hPa | 0 mm | - | 738 W/m² | - |
| 1778010333 | 31.67° C | 27% | 1013.6 hPa | 0 mm | - | 745 W/m² | - |
| 1778010028 | 31.11° C | 29% | 1013.6 hPa | 0 mm | - | 752 W/m² | - |
| 1778009726 | 31.11° C | 29% | 1013.7 hPa | 0 mm | - | 767 W/m² | - |
| 1778009423 | 31.67° C | 28% | 1013.9 hPa | 0 mm | - | 778 W/m² | - |
| 1778009121 | 31.67° C | 28% | 1013.9 hPa | 0 mm | - | 785 W/m² | - |
| 1778008818 | 31.11° C | 29% | 1014.1 hPa | 0 mm | - | 584 W/m² | - |
| 1778008517 | 30.56° C | 30% | 1014.1 hPa | 0 mm | - | 814 W/m² | - |
| 1778008215 | 30° C | 30% | 1014.3 hPa | 0 mm | - | 816 W/m² | - |
| 1778007909 | 30.56° C | 28% | 1014.3 hPa | 0 mm | - | 835 W/m² | - |
| 1778007605 | 30.56° C | 31% | 1014.3 hPa | 0 mm | - | 843 W/m² | - |
| 1778007302 | 30.56° C | 28% | 1014.4 hPa | 0 mm | - | 842 W/m² | - |
| 1778006998 | 30.56° C | 30% | 1014.6 hPa | 0 mm | - | 867 W/m² | - |
| 1778006695 | 30° C | 30% | 1014.8 hPa | 0 mm | - | 844 W/m² | - |
| 1778006391 | 30.56° C | 29% | 1014.7 hPa | 0 mm | - | 790 W/m² | - |
| 1778006089 | 30° C | 30% | 1014.7 hPa | 0 mm | - | 854 W/m² | - |
| 1778005785 | 30.56° C | 29% | 1014.7 hPa | 0 mm | - | 888 W/m² | - |
| 1778005482 | 30.56° C | 29% | 1014.8 hPa | 0 mm | - | 883 W/m² | - |
| 1778005178 | 31.11° C | 28% | 1014.9 hPa | 0 mm | - | 894 W/m² | - |
| 1778004876 | 30.56° C | 29% | 1014.7 hPa | 0 mm | - | 899 W/m² | - |
| 1778004573 | 30.56° C | 29% | 1014.7 hPa | 0 mm | - | 896 W/m² | - |
| 1778004269 | 30.56° C | 29% | 1014.8 hPa | 0 mm | - | 904 W/m² | - |
| 1778003966 | 30.56° C | 28% | 1014.8 hPa | 0 mm | - | 909 W/m² | - |
* Rain latest hour (hover to see other rain measurements)
** Current wind speed in m/s (hover to see current wind gust speed)